sensor_id;sensor_type;location;lat;lon;timestamp;pressure;altitude;pressure_sealevel;temperature;humidity
12349;BME280;5974;42.710;27.258;2023-04-21T00:01:59;99711.50;;;13.73;100.00
12349;BME280;5974;42.710;27.258;2023-04-21T00:04:26;99703.69;;;13.57;100.00
12349;BME280;5974;42.710;27.258;2023-04-21T00:06:53;99702.78;;;13.73;100.00
12349;BME280;5974;42.710;27.258;2023-04-21T00:09:20;99706.50;;;13.54;100.00
12349;BME280;5974;42.710;27.258;2023-04-21T00:11:48;99701.38;;;13.67;100.00
12349;BME280;5974;42.710;27.258;2023-04-21T00:14:15;99695.44;;;13.64;100.00
12349;BME280;5974;42.710;27.258;2023-04-21T00:16:42;99687.66;;;13.62;100.00
12349;BME280;5974;42.710;27.258;2023-04-21T00:19:09;99688.34;;;13.66;100.00
12349;BME280;5974;42.710;27.258;2023-04-21T00:21:38;99687.75;;;13.61;100.00
12349;BME280;5974;42.710;27.258;2023-04-21T00:24:05;99690.38;;;13.61;100.00
12349;BME280;5974;42.710;27.258;2023-04-21T00:26:32;99693.00;;;13.46;100.00
12349;BME280;5974;42.710;27.258;2023-04-21T00:29:01;99689.19;;;13.22;100.00
12349;BME280;5974;42.710;27.258;2023-04-21T00:31:28;99695.03;;;13.41;100.00
12349;BME280;5974;42.710;27.258;2023-04-21T00:33:56;99689.31;;;13.49;100.00
12349;BME280;5974;42.710;27.258;2023-04-21T00:36:23;99688.72;;;13.30;100.00
12349;BME280;5974;42.710;27.258;2023-04-21T00:38:52;99677.00;;;13.35;100.00
12349;BME280;5974;42.710;27.258;2023-04-21T00:41:19;99667.69;;;13.16;100.00
12349;BME280;5974;42.710;27.258;2023-04-21T00:44:04;99676.19;;;12.58;100.00
12349;BME280;5974;42.710;27.258;2023-04-21T00:46:31;99680.50;;;12.28;100.00
12349;BME280;5974;42.710;27.258;2023-04-21T00:48:59;99682.22;;;12.44;100.00
12349;BME280;5974;42.710;27.258;2023-04-21T00:51:27;99683.94;;;12.45;100.00
12349;BME280;5974;42.710;27.258;2023-04-21T00:53:54;99695.72;;;12.06;100.00
12349;BME280;5974;42.710;27.258;2023-04-21T00:56:22;99676.53;;;12.52;100.00
12349;BME280;5974;42.710;27.258;2023-04-21T00:58:49;99678.00;;;12.42;100.00
12349;BME280;5974;42.710;27.258;2023-04-21T01:01:18;99684.72;;;11.99;100.00
12349;BME280;5974;42.710;27.258;2023-04-21T01:03:45;99693.41;;;11.84;100.00
12349;BME280;5974;42.710;27.258;2023-04-21T01:06:12;99685.34;;;12.20;100.00
12349;BME280;5974;42.710;27.258;2023-04-21T01:08:39;99685.34;;;12.35;100.00
12349;BME280;5974;42.710;27.258;2023-04-21T01:11:09;99678.16;;;12.39;100.00
12349;BME280;5974;42.710;27.258;2023-04-21T01:13:36;99687.63;;;12.26;100.00
12349;BME280;5974;42.710;27.258;2023-04-21T01:16:04;99675.53;;;11.58;100.00
12349;BME280;5974;42.710;27.258;2023-04-21T01:18:33;99665.31;;;11.53;100.00
12349;BME280;5974;42.710;27.258;2023-04-21T01:21:01;99667.81;;;11.55;100.00
12349;BME280;5974;42.710;27.258;2023-04-21T01:23:30;99668.06;;;11.33;100.00
12349;BME280;5974;42.710;27.258;2023-04-21T01:25:57;99666.84;;;11.40;100.00
12349;BME280;5974;42.710;27.258;2023-04-21T01:28:24;99664.53;;;11.34;100.00
12349;BME280;5974;42.710;27.258;2023-04-21T01:30:52;99653.28;;;11.49;100.00
12349;BME280;5974;42.710;27.258;2023-04-21T01:33:19;99660.16;;;11.34;100.00
12349;BME280;5974;42.710;27.258;2023-04-21T01:35:47;99656.47;;;11.21;100.00
12349;BME280;5974;42.710;27.258;2023-04-21T01:38:14;99662.53;;;11.39;100.00
12349;BME280;5974;42.710;27.258;2023-04-21T01:40:46;99660.59;;;11.42;100.00
12349;BME280;5974;42.710;27.258;2023-04-21T01:43:16;99655.84;;;11.33;100.00
12349;BME280;5974;42.710;27.258;2023-04-21T01:45:44;99656.84;;;11.31;100.00
12349;BME280;5974;42.710;27.258;2023-04-21T01:48:11;99657.69;;;11.14;100.00
12349;BME280;5974;42.710;27.258;2023-04-21T01:50:37;99650.28;;;11.39;100.00
12349;BME280;5974;42.710;27.258;2023-04-21T01:53:05;99645.19;;;11.54;100.00
12349;BME280;5974;42.710;27.258;2023-04-21T01:55:32;99637.69;;;11.63;100.00
12349;BME280;5974;42.710;27.258;2023-04-21T01:58:00;99636.56;;;11.69;100.00
12349;BME280;5974;42.710;27.258;2023-04-21T02:00:27;99636.78;;;11.64;100.00
12349;BME280;5974;42.710;27.258;2023-04-21T02:02:54;99641.16;;;11.64;100.00
12349;BME280;5974;42.710;27.258;2023-04-21T02:05:21;99641.66;;;11.55;100.00
12349;BME280;5974;42.710;27.258;2023-04-21T02:07:48;99638.91;;;10.89;100.00
12349;BME280;5974;42.710;27.258;2023-04-21T02:10:14;99645.13;;;10.86;100.00
12349;BME280;5974;42.710;27.258;2023-04-21T02:12:41;99654.31;;;11.12;100.00
12349;BME280;5974;42.710;27.258;2023-04-21T02:15:10;99651.06;;;11.41;100.00
12349;BME280;5974;42.710;27.258;2023-04-21T02:17:37;99646.91;;;11.37;100.00
12349;BME280;5974;42.710;27.258;2023-04-21T02:20:05;99637.25;;;11.22;100.00
12349;BME280;5974;42.710;27.258;2023-04-21T02:22:33;99646.22;;;11.17;100.00
12349;BME280;5974;42.710;27.258;2023-04-21T02:25:00;99636.47;;;11.03;100.00
12349;BME280;5974;42.710;27.258;2023-04-21T02:27:26;99647.84;;;11.02;100.00
12349;BME280;5974;42.710;27.258;2023-04-21T02:29:53;99642.63;;;11.02;100.00
12349;BME280;5974;42.710;27.258;2023-04-21T02:32:21;99631.22;;;10.86;100.00
12349;BME280;5974;42.710;27.258;2023-04-21T02:34:48;99635.59;;;10.68;100.00
12349;BME280;5974;42.710;27.258;2023-04-21T02:37:15;99641.69;;;10.13;100.00
12349;BME280;5974;42.710;27.258;2023-04-21T02:39:42;99629.69;;;10.46;100.00
12349;BME280;5974;42.710;27.258;2023-04-21T02:42:09;99642.50;;;10.69;100.00
12349;BME280;5974;42.710;27.258;2023-04-21T02:44:36;99641.31;;;10.76;100.00
12349;BME280;5974;42.710;27.258;2023-04-21T02:47:03;99649.63;;;10.11;100.00
12349;BME280;5974;42.710;27.258;2023-04-21T02:49:32;99627.59;;;9.41;100.00
12349;BME280;5974;42.710;27.258;2023-04-21T02:51:58;99645.81;;;9.22;100.00
12349;BME280;5974;42.710;27.258;2023-04-21T02:54:25;99654.84;;;9.34;100.00
12349;BME280;5974;42.710;27.258;2023-04-21T02:56:52;99658.97;;;9.59;100.00
12349;BME280;5974;42.710;27.258;2023-04-21T02:59:19;99658.19;;;9.76;100.00
12349;BME280;5974;42.710;27.258;2023-04-21T03:01:46;99657.59;;;9.90;100.00
12349;BME280;5974;42.710;27.258;2023-04-21T03:04:13;99665.00;;;9.99;100.00
12349;BME280;5974;42.710;27.258;2023-04-21T03:06:42;99662.63;;;10.31;100.00
12349;BME280;5974;42.710;27.258;2023-04-21T03:09:08;99661.19;;;10.43;100.00
12349;BME280;5974;42.710;27.258;2023-04-21T03:11:35;99665.75;;;10.21;100.00
12349;BME280;5974;42.710;27.258;2023-04-21T03:14:02;99657.53;;;10.28;100.00
12349;BME280;5974;42.710;27.258;2023-04-21T03:16:29;99656.41;;;10.34;100.00
12349;BME280;5974;42.710;27.258;2023-04-21T03:18:56;99655.44;;;10.37;100.00
12349;BME280;5974;42.710;27.258;2023-04-21T03:21:23;99667.34;;;10.61;100.00
12349;BME280;5974;42.710;27.258;2023-04-21T03:23:51;99659.50;;;10.61;100.00
12349;BME280;5974;42.710;27.258;2023-04-21T03:26:18;99664.84;;;10.76;100.00
12349;BME280;5974;42.710;27.258;2023-04-21T03:28:45;99656.84;;;10.97;100.00
12349;BME280;5974;42.710;27.258;2023-04-21T03:31:12;99663.47;;;11.04;100.00
12349;BME280;5974;42.710;27.258;2023-04-21T03:33:39;99672.63;;;11.12;100.00
12349;BME280;5974;42.710;27.258;2023-04-21T03:36:06;99680.06;;;10.85;100.00
12349;BME280;5974;42.710;27.258;2023-04-21T03:38:33;99679.06;;;10.88;100.00
12349;BME280;5974;42.710;27.258;2023-04-21T03:41:02;99676.91;;;10.79;100.00
12349;BME280;5974;42.710;27.258;2023-04-21T03:43:29;99679.94;;;11.06;100.00
12349;BME280;5974;42.710;27.258;2023-04-21T03:45:56;99685.56;;;10.98;100.00
12349;BME280;5974;42.710;27.258;2023-04-21T03:48:23;99694.34;;;11.31;100.00
12349;BME280;5974;42.710;27.258;2023-04-21T03:50:49;99676.31;;;10.91;100.00
12349;BME280;5974;42.710;27.258;2023-04-21T03:53:16;99685.84;;;11.61;100.00
12349;BME280;5974;42.710;27.258;2023-04-21T03:55:43;99676.84;;;11.49;100.00
12349;BME280;5974;42.710;27.258;2023-04-21T03:58:14;99677.38;;;11.56;100.00
12349;BME280;5974;42.710;27.258;2023-04-21T04:00:41;99674.19;;;11.66;100.00
12349;BME280;5974;42.710;27.258;2023-04-21T04:03:08;99672.13;;;11.73;100.00
12349;BME280;5974;42.710;27.258;2023-04-21T04:05:35;99670.78;;;11.31;100.00
12349;BME280;5974;42.710;27.258;2023-04-21T04:08:02;99682.34;;;10.74;100.00
12349;BME280;5974;42.710;27.258;2023-04-21T04:10:29;99685.78;;;10.58;100.00
12349;BME280;5974;42.710;27.258;2023-04-21T04:12:56;99678.66;;;10.43;100.00
12349;BME280;5974;42.710;27.258;2023-04-21T04:15:24;99711.97;;;10.75;100.00
12349;BME280;5974;42.710;27.258;2023-04-21T04:17:51;99712.97;;;11.25;100.00
12349;BME280;5974;42.710;27.258;2023-04-21T04:20:18;99714.56;;;11.62;100.00
12349;BME280;5974;42.710;27.258;2023-04-21T04:22:45;99700.25;;;11.86;100.00
12349;BME280;5974;42.710;27.258;2023-04-21T04:25:12;99693.69;;;11.61;100.00
12349;BME280;5974;42.710;27.258;2023-04-21T04:27:41;99697.84;;;11.48;100.00
12349;BME280;5974;42.710;27.258;2023-04-21T04:30:09;99694.09;;;11.53;100.00
12349;BME280;5974;42.710;27.258;2023-04-21T04:32:38;99700.78;;;11.59;100.00
12349;BME280;5974;42.710;27.258;2023-04-21T04:35:06;99705.06;;;12.27;100.00
12349;BME280;5974;42.710;27.258;2023-04-21T04:37:35;99695.66;;;12.23;100.00
12349;BME280;5974;42.710;27.258;2023-04-21T04:40:02;99690.09;;;12.76;100.00
12349;BME280;5974;42.710;27.258;2023-04-21T04:42:31;99690.84;;;12.78;100.00
12349;BME280;5974;42.710;27.258;2023-04-21T04:44:59;99695.66;;;12.85;100.00
12349;BME280;5974;42.710;27.258;2023-04-21T04:47:26;99691.59;;;13.55;100.00
12349;BME280;5974;42.710;27.258;2023-04-21T04:49:55;99683.03;;;13.51;100.00
12349;BME280;5974;42.710;27.258;2023-04-21T04:52:22;99687.47;;;13.21;100.00
12349;BME280;5974;42.710;27.258;2023-04-21T04:54:49;99691.41;;;12.83;100.00
12349;BME280;5974;42.710;27.258;2023-04-21T04:57:15;99689.88;;;13.10;100.00
12349;BME280;5974;42.710;27.258;2023-04-21T04:59:42;99688.44;;;12.89;100.00
12349;BME280;5974;42.710;27.258;2023-04-21T05:02:09;99696.03;;;12.64;100.00
12349;BME280;5974;42.710;27.258;2023-04-21T05:04:37;99694.41;;;12.45;100.00
12349;BME280;5974;42.710;27.258;2023-04-21T05:07:05;99692.63;;;12.62;100.00
12349;BME280;5974;42.710;27.258;2023-04-21T05:09:32;99696.84;;;12.33;100.00
12349;BME280;5974;42.710;27.258;2023-04-21T05:11:59;99697.00;;;12.14;100.00
12349;BME280;5974;42.710;27.258;2023-04-21T05:14:27;99698.63;;;12.32;100.00
12349;BME280;5974;42.710;27.258;2023-04-21T05:16:53;99690.59;;;12.35;100.00
12349;BME280;5974;42.710;27.258;2023-04-21T05:19:20;99671.38;;;12.66;100.00
12349;BME280;5974;42.710;27.258;2023-04-21T05:21:47;99680.66;;;13.33;100.00
12349;BME280;5974;42.710;27.258;2023-04-21T05:24:16;99671.91;;;14.04;100.00
12349;BME280;5974;42.710;27.258;2023-04-21T05:26:47;99673.59;;;14.75;100.00
12349;BME280;5974;42.710;27.258;2023-04-21T05:29:14;99662.03;;;15.29;100.00
12349;BME280;5974;42.710;27.258;2023-04-21T05:31:41;99657.84;;;15.27;100.00
12349;BME280;5974;42.710;27.258;2023-04-21T05:34:08;99655.84;;;14.91;100.00
12349;BME280;5974;42.710;27.258;2023-04-21T05:36:35;99658.00;;;14.17;100.00
12349;BME280;5974;42.710;27.258;2023-04-21T05:39:01;99669.00;;;13.95;100.00
12349;BME280;5974;42.710;27.258;2023-04-21T05:41:30;99667.13;;;14.11;100.00
12349;BME280;5974;42.710;27.258;2023-04-21T05:43:56;99655.69;;;14.53;100.00
12349;BME280;5974;42.710;27.258;2023-04-21T05:46:23;99651.31;;;14.93;100.00
12349;BME280;5974;42.710;27.258;2023-04-21T05:48:50;99653.69;;;15.49;100.00
12349;BME280;5974;42.710;27.258;2023-04-21T05:51:17;99645.28;;;14.78;100.00
12349;BME280;5974;42.710;27.258;2023-04-21T05:53:44;99649.81;;;15.15;100.00
12349;BME280;5974;42.710;27.258;2023-04-21T05:56:12;99647.56;;;15.99;100.00
12349;BME280;5974;42.710;27.258;2023-04-21T05:58:40;99638.94;;;17.05;100.00
12349;BME280;5974;42.710;27.258;2023-04-21T06:01:07;99636.22;;;17.52;100.00
12349;BME280;5974;42.710;27.258;2023-04-21T06:03:34;99640.94;;;17.82;100.00
12349;BME280;5974;42.710;27.258;2023-04-21T06:06:02;99646.88;;;17.05;100.00
12349;BME280;5974;42.710;27.258;2023-04-21T06:08:30;99645.50;;;16.64;100.00
12349;BME280;5974;42.710;27.258;2023-04-21T06:10:57;99652.47;;;16.16;100.00
12349;BME280;5974;42.710;27.258;2023-04-21T06:13:24;99659.78;;;15.75;100.00
12349;BME280;5974;42.710;27.258;2023-04-21T06:15:54;99660.97;;;15.71;100.00
12349;BME280;5974;42.710;27.258;2023-04-21T06:18:21;99664.19;;;16.12;100.00
12349;BME280;5974;42.710;27.258;2023-04-21T06:20:52;99666.84;;;16.00;100.00
12349;BME280;5974;42.710;27.258;2023-04-21T06:23:19;99665.56;;;16.18;100.00
12349;BME280;5974;42.710;27.258;2023-04-21T06:25:58;99667.88;;;15.34;100.00
12349;BME280;5974;42.710;27.258;2023-04-21T06:28:26;99668.63;;;14.70;100.00
12349;BME280;5974;42.710;27.258;2023-04-21T06:30:54;99674.44;;;14.48;100.00
12349;BME280;5974;42.710;27.258;2023-04-21T06:33:21;99680.16;;;14.27;100.00
12349;BME280;5974;42.710;27.258;2023-04-21T06:35:47;99690.22;;;13.92;100.00
12349;BME280;5974;42.710;27.258;2023-04-21T06:38:14;99703.13;;;13.67;100.00
12349;BME280;5974;42.710;27.258;2023-04-21T06:40:41;99695.06;;;13.55;100.00
12349;BME280;5974;42.710;27.258;2023-04-21T06:43:08;99682.72;;;13.28;100.00
12349;BME280;5974;42.710;27.258;2023-04-21T06:45:35;99673.19;;;12.95;100.00
12349;BME280;5974;42.710;27.258;2023-04-21T06:48:04;99685.41;;;13.26;100.00
12349;BME280;5974;42.710;27.258;2023-04-21T06:50:31;99704.78;;;13.53;100.00
12349;BME280;5974;42.710;27.258;2023-04-21T06:52:57;99713.31;;;13.87;100.00
12349;BME280;5974;42.710;27.258;2023-04-21T06:55:24;99710.22;;;14.78;100.00
12349;BME280;5974;42.710;27.258;2023-04-21T06:57:51;99703.56;;;15.38;100.00
12349;BME280;5974;42.710;27.258;2023-04-21T07:00:18;99673.84;;;16.37;100.00
12349;BME280;5974;42.710;27.258;2023-04-21T07:02:45;99674.44;;;16.90;100.00
12349;BME280;5974;42.710;27.258;2023-04-21T07:05:13;99664.50;;;17.28;100.00
12349;BME280;5974;42.710;27.258;2023-04-21T07:07:40;99676.19;;;17.37;100.00
12349;BME280;5974;42.710;27.258;2023-04-21T07:10:08;99648.56;;;18.74;100.00
12349;BME280;5974;42.710;27.258;2023-04-21T07:12:35;99660.03;;;19.27;100.00
12349;BME280;5974;42.710;27.258;2023-04-21T07:15:02;99647.69;;;19.16;100.00
12349;BME280;5974;42.710;27.258;2023-04-21T07:17:29;99648.00;;;20.65;100.00
12349;BME280;5974;42.710;27.258;2023-04-21T07:19:56;99632.00;;;23.42;100.00
12349;BME280;5974;42.710;27.258;2023-04-21T07:22:24;99634.22;;;25.46;84.54
12349;BME280;5974;42.710;27.258;2023-04-21T07:24:51;99634.69;;;25.82;73.55
12349;BME280;5974;42.710;27.258;2023-04-21T07:27:18;99631.53;;;25.38;70.96
12349;BME280;5974;42.710;27.258;2023-04-21T07:29:45;99631.69;;;23.96;77.02
12349;BME280;5974;42.710;27.258;2023-04-21T07:32:12;99646.81;;;22.01;81.70
12349;BME280;5974;42.710;27.258;2023-04-21T07:34:38;99638.50;;;21.58;87.13
12349;BME280;5974;42.710;27.258;2023-04-21T07:37:05;99643.75;;;21.31;90.27
12349;BME280;5974;42.710;27.258;2023-04-21T07:39:33;99643.66;;;20.54;97.10
12349;BME280;5974;42.710;27.258;2023-04-21T07:42:00;99645.28;;;19.75;95.68
12349;BME280;5974;42.710;27.258;2023-04-21T07:44:27;99642.50;;;20.37;100.00
12349;BME280;5974;42.710;27.258;2023-04-21T07:46:54;99638.66;;;20.89;97.99
12349;BME280;5974;42.710;27.258;2023-04-21T07:49:21;99634.41;;;21.73;90.56
12349;BME280;5974;42.710;27.258;2023-04-21T07:51:48;99644.44;;;21.98;91.14
12349;BME280;5974;42.710;27.258;2023-04-21T07:54:15;99644.00;;;21.47;83.65
12349;BME280;5974;42.710;27.258;2023-04-21T07:56:43;99641.78;;;21.23;87.70
12349;BME280;5974;42.710;27.258;2023-04-21T07:59:10;99641.19;;;21.48;89.62
12349;BME280;5974;42.710;27.258;2023-04-21T08:01:37;99643.03;;;21.85;89.60
12349;BME280;5974;42.710;27.258;2023-04-21T08:04:04;99643.94;;;21.66;88.96
12349;BME280;5974;42.710;27.258;2023-04-21T08:06:31;99648.72;;;20.57;88.59
12349;BME280;5974;42.710;27.258;2023-04-21T08:08:58;99646.78;;;19.89;97.03
12349;BME280;5974;42.710;27.258;2023-04-21T08:11:25;99646.53;;;19.71;100.00
12349;BME280;5974;42.710;27.258;2023-04-21T08:13:54;99640.88;;;19.85;94.63
12349;BME280;5974;42.710;27.258;2023-04-21T08:16:22;99632.72;;;20.38;97.44
12349;BME280;5974;42.710;27.258;2023-04-21T08:18:48;99639.47;;;20.12;91.53
12349;BME280;5974;42.710;27.258;2023-04-21T08:21:15;99649.19;;;19.51;91.06
12349;BME280;5974;42.710;27.258;2023-04-21T08:23:42;99648.53;;;19.37;95.58
12349;BME280;5974;42.710;27.258;2023-04-21T08:26:09;99678.53;;;18.85;92.37
12349;BME280;5974;42.710;27.258;2023-04-21T08:28:36;99684.88;;;16.06;97.31
12349;BME280;5974;42.710;27.258;2023-04-21T08:31:04;99690.09;;;15.30;100.00
12349;BME280;5974;42.710;27.258;2023-04-21T08:33:31;99705.28;;;14.73;100.00
12349;BME280;5974;42.710;27.258;2023-04-21T08:35:58;99674.16;;;13.82;100.00
12349;BME280;5974;42.710;27.258;2023-04-21T08:38:25;99720.25;;;13.74;100.00
12349;BME280;5974;42.710;27.258;2023-04-21T08:40:53;99714.31;;;13.70;100.00
12349;BME280;5974;42.710;27.258;2023-04-21T08:43:21;99722.56;;;13.78;100.00
12349;BME280;5974;42.710;27.258;2023-04-21T08:45:49;99728.13;;;13.74;100.00
12349;BME280;5974;42.710;27.258;2023-04-21T08:48:20;99729.66;;;13.18;100.00
12349;BME280;5974;42.710;27.258;2023-04-21T08:50:48;99737.63;;;12.85;100.00
12349;BME280;5974;42.710;27.258;2023-04-21T08:53:16;99741.44;;;12.48;100.00
12349;BME280;5974;42.710;27.258;2023-04-21T08:55:44;99762.13;;;12.37;100.00
12349;BME280;5974;42.710;27.258;2023-04-21T08:58:11;99770.41;;;12.30;100.00
12349;BME280;5974;42.710;27.258;2023-04-21T09:00:38;99763.59;;;12.10;100.00
12349;BME280;5974;42.710;27.258;2023-04-21T09:03:06;99770.00;;;11.87;100.00
12349;BME280;5974;42.710;27.258;2023-04-21T09:05:34;99769.56;;;11.79;100.00
12349;BME280;5974;42.710;27.258;2023-04-21T09:08:11;99785.56;;;11.90;100.00
12349;BME280;5974;42.710;27.258;2023-04-21T09:10:44;99768.88;;;11.93;100.00
12349;BME280;5974;42.710;27.258;2023-04-21T09:13:13;99763.00;;;11.88;100.00
12349;BME280;5974;42.710;27.258;2023-04-21T09:15:40;99741.78;;;12.10;100.00
12349;BME280;5974;42.710;27.258;2023-04-21T09:18:12;99748.34;;;12.34;100.00
12349;BME280;5974;42.710;27.258;2023-04-21T09:20:41;99757.91;;;12.35;100.00
12349;BME280;5974;42.710;27.258;2023-04-21T09:23:09;99751.84;;;12.50;100.00
12349;BME280;5974;42.710;27.258;2023-04-21T09:25:37;99733.56;;;12.80;100.00
12349;BME280;5974;42.710;27.258;2023-04-21T09:28:06;99723.03;;;13.27;100.00
12349;BME280;5974;42.710;27.258;2023-04-21T09:30:34;99727.63;;;13.67;100.00
12349;BME280;5974;42.710;27.258;2023-04-21T09:33:02;99718.09;;;13.94;100.00
12349;BME280;5974;42.710;27.258;2023-04-21T09:35:29;99699.13;;;13.89;100.00
12349;BME280;5974;42.710;27.258;2023-04-21T09:38:00;99694.63;;;14.20;100.00
12349;BME280;5974;42.710;27.258;2023-04-21T09:40:28;99678.75;;;14.35;100.00
12349;BME280;5974;42.710;27.258;2023-04-21T09:42:55;99686.66;;;14.35;100.00
12349;BME280;5974;42.710;27.258;2023-04-21T09:45:25;99656.72;;;14.91;100.00
12349;BME280;5974;42.710;27.258;2023-04-21T09:47:55;99677.91;;;15.54;100.00
12349;BME280;5974;42.710;27.258;2023-04-21T09:50:23;99666.44;;;15.03;100.00
12349;BME280;5974;42.710;27.258;2023-04-21T09:52:51;99666.03;;;15.09;100.00
12349;BME280;5974;42.710;27.258;2023-04-21T09:55:25;99646.41;;;15.53;100.00
12349;BME280;5974;42.710;27.258;2023-04-21T09:57:57;99654.84;;;15.83;100.00
12349;BME280;5974;42.710;27.258;2023-04-21T10:00:25;99666.31;;;15.69;100.00
12349;BME280;5974;42.710;27.258;2023-04-21T10:02:54;99652.59;;;15.39;100.00
12349;BME280;5974;42.710;27.258;2023-04-21T10:05:23;99668.09;;;15.44;100.00
12349;BME280;5974;42.710;27.258;2023-04-21T10:07:51;99663.38;;;15.49;100.00
12349;BME280;5974;42.710;27.258;2023-04-21T10:10:23;99664.75;;;15.67;100.00
12349;BME280;5974;42.710;27.258;2023-04-21T10:12:50;99657.97;;;16.13;100.00
12349;BME280;5974;42.710;27.258;2023-04-21T10:15:31;99660.22;;;15.94;100.00
12349;BME280;5974;42.710;27.258;2023-04-21T10:18:16;99668.66;;;15.99;97.55
12349;BME280;5974;42.710;27.258;2023-04-21T10:20:53;99662.75;;;15.96;95.45
12349;BME280;5974;42.710;27.258;2023-04-21T10:23:32;99653.44;;;16.03;94.27
12349;BME280;5974;42.710;27.258;2023-04-21T10:26:05;99662.22;;;16.40;92.96
12349;BME280;5974;42.710;27.258;2023-04-21T10:28:44;99667.66;;;16.25;87.24
12349;BME280;5974;42.710;27.258;2023-04-21T10:31:19;99663.28;;;16.37;89.05
12349;BME280;5974;42.710;27.258;2023-04-21T10:34:15;99657.25;;;16.60;86.89
12349;BME280;5974;42.710;27.258;2023-04-21T10:36:48;99666.47;;;16.55;85.94
12349;BME280;5974;42.710;27.258;2023-04-21T10:39:26;99655.25;;;16.51;88.82
12349;BME280;5974;42.710;27.258;2023-04-21T10:41:56;99660.00;;;16.83;88.96
12349;BME280;5974;42.710;27.258;2023-04-21T10:44:27;99666.66;;;16.99;88.02
12349;BME280;5974;42.710;27.258;2023-04-21T10:46:54;99649.91;;;17.11;85.38
12349;BME280;5974;42.710;27.258;2023-04-21T10:49:25;99643.78;;;16.76;81.19
12349;BME280;5974;42.710;27.258;2023-04-21T10:52:03;99665.72;;;17.35;85.84
12349;BME280;5974;42.710;27.258;2023-04-21T10:54:36;99663.28;;;17.21;79.39
12349;BME280;5974;42.710;27.258;2023-04-21T10:57:08;99646.19;;;16.79;80.18
12349;BME280;5974;42.710;27.258;2023-04-21T10:59:44;99651.13;;;16.47;80.00
12349;BME280;5974;42.710;27.258;2023-04-21T11:02:13;99653.53;;;16.63;79.09
12349;BME280;5974;42.710;27.258;2023-04-21T11:04:40;99658.38;;;16.69;78.62
12349;BME280;5974;42.710;27.258;2023-04-21T11:07:11;99656.44;;;16.71;78.60
12349;BME280;5974;42.710;27.258;2023-04-21T11:09:40;99663.38;;;16.85;79.83
12349;BME280;5974;42.710;27.258;2023-04-21T11:12:08;99652.22;;;17.16;80.96
12349;BME280;5974;42.710;27.258;2023-04-21T11:14:40;99664.38;;;17.64;78.28
12349;BME280;5974;42.710;27.258;2023-04-21T11:17:12;99666.69;;;17.45;74.55
12349;BME280;5974;42.710;27.258;2023-04-21T11:19:40;99659.38;;;17.49;75.02
12349;BME280;5974;42.710;27.258;2023-04-21T11:22:07;99664.41;;;17.98;75.87
12349;BME280;5974;42.710;27.258;2023-04-21T11:24:34;99661.28;;;18.26;75.66
12349;BME280;5974;42.710;27.258;2023-04-21T11:27:01;99666.56;;;18.04;72.47
12349;BME280;5974;42.710;27.258;2023-04-21T11:29:29;99673.19;;;17.98;71.28
12349;BME280;5974;42.710;27.258;2023-04-21T11:31:56;99669.53;;;17.66;69.79
12349;BME280;5974;42.710;27.258;2023-04-21T11:34:25;99670.88;;;17.25;70.45
12349;BME280;5974;42.710;27.258;2023-04-21T11:36:52;99662.47;;;17.31;71.27
12349;BME280;5974;42.710;27.258;2023-04-21T11:39:20;99663.81;;;17.48;71.26
12349;BME280;5974;42.710;27.258;2023-04-21T11:41:48;99662.59;;;17.76;72.37
12349;BME280;5974;42.710;27.258;2023-04-21T11:44:30;99664.28;;;17.77;70.84
12349;BME280;5974;42.710;27.258;2023-04-21T11:46:57;99679.91;;;17.10;68.92
12349;BME280;5974;42.710;27.258;2023-04-21T11:49:26;99663.16;;;16.88;69.87
12349;BME280;5974;42.710;27.258;2023-04-21T11:51:55;99668.97;;;16.80;71.53
12349;BME280;5974;42.710;27.258;2023-04-21T11:54:22;99656.59;;;17.04;72.31
12349;BME280;5974;42.710;27.258;2023-04-21T11:56:49;99654.88;;;17.27;70.45
12349;BME280;5974;42.710;27.258;2023-04-21T11:59:22;99645.22;;;17.50;72.27
12349;BME280;5974;42.710;27.258;2023-04-21T12:01:51;99633.41;;;17.77;70.35
12349;BME280;5974;42.710;27.258;2023-04-21T12:04:20;99632.78;;;17.85;71.72
12349;BME280;5974;42.710;27.258;2023-04-21T12:06:56;99641.91;;;17.59;67.40
12349;BME280;5974;42.710;27.258;2023-04-21T12:09:25;99636.78;;;17.33;69.22
12349;BME280;5974;42.710;27.258;2023-04-21T12:11:53;99650.59;;;17.48;69.14
12349;BME280;5974;42.710;27.258;2023-04-21T12:14:22;99648.84;;;17.60;69.14
12349;BME280;5974;42.710;27.258;2023-04-21T12:16:52;99664.66;;;17.95;67.04
12349;BME280;5974;42.710;27.258;2023-04-21T12:19:23;99647.72;;;17.51;66.63
12349;BME280;5974;42.710;27.258;2023-04-21T12:21:55;99654.56;;;17.43;66.95
12349;BME280;5974;42.710;27.258;2023-04-21T12:24:22;99654.31;;;17.92;67.55
12349;BME280;5974;42.710;27.258;2023-04-21T12:26:49;99654.03;;;18.39;66.18
12349;BME280;5974;42.710;27.258;2023-04-21T12:29:16;99647.66;;;18.53;64.81
12349;BME280;5974;42.710;27.258;2023-04-21T12:31:42;99642.84;;;18.58;64.16
12349;BME280;5974;42.710;27.258;2023-04-21T12:34:09;99649.19;;;18.66;65.08
12349;BME280;5974;42.710;27.258;2023-04-21T12:36:36;99649.66;;;19.03;64.06
12349;BME280;5974;42.710;27.258;2023-04-21T12:39:05;99649.75;;;19.33;65.07
12349;BME280;5974;42.710;27.258;2023-04-21T12:41:32;99655.13;;;18.90;61.34
12349;BME280;5974;42.710;27.258;2023-04-21T12:43:59;99654.94;;;18.82;62.57
12349;BME280;5974;42.710;27.258;2023-04-21T12:46:26;99655.09;;;18.36;62.57
12349;BME280;5974;42.710;27.258;2023-04-21T12:48:53;99657.06;;;18.12;63.74
12349;BME280;5974;42.710;27.258;2023-04-21T12:51:20;99651.78;;;17.90;64.22
12349;BME280;5974;42.710;27.258;2023-04-21T12:53:47;99660.44;;;17.92;65.17
12349;BME280;5974;42.710;27.258;2023-04-21T12:56:15;99652.63;;;18.02;64.56
12349;BME280;5974;42.710;27.258;2023-04-21T12:58:42;99650.69;;;18.04;64.02